sensor_id;sensor_type;location;lat;lon;timestamp;P1;durP1;ratioP1;P2;durP2;ratioP2
80322;SDS011;69636;52.372;13.610;2023-06-04T00:00:00;6.28;;;4.20;;
80322;SDS011;69636;52.372;13.610;2023-06-04T00:02:30;6.65;;;4.45;;
80322;SDS011;69636;52.372;13.610;2023-06-04T00:04:59;5.50;;;3.70;;
80322;SDS011;69636;52.372;13.610;2023-06-04T00:07:26;6.80;;;4.53;;
80322;SDS011;69636;52.372;13.610;2023-06-04T00:09:53;5.32;;;3.80;;
80322;SDS011;69636;52.372;13.610;2023-06-04T00:12:21;6.20;;;4.38;;
80322;SDS011;69636;52.372;13.610;2023-06-04T00:14:48;6.60;;;4.20;;
80322;SDS011;69636;52.372;13.610;2023-06-04T00:17:15;5.95;;;4.63;;
80322;SDS011;69636;52.372;13.610;2023-06-04T00:19:43;5.38;;;3.78;;
80322;SDS011;69636;52.372;13.610;2023-06-04T00:22:11;5.35;;;3.38;;
80322;SDS011;69636;52.372;13.610;2023-06-04T00:24:39;4.93;;;3.47;;
80322;SDS011;69636;52.372;13.610;2023-06-04T00:27:06;6.07;;;4.60;;
80322;SDS011;69636;52.372;13.610;2023-06-04T00:29:34;5.70;;;4.30;;
80322;SDS011;69636;52.372;13.610;2023-06-04T00:32:01;5.50;;;3.78;;
80322;SDS011;69636;52.372;13.610;2023-06-04T00:34:30;5.00;;;3.33;;
80322;SDS011;69636;52.372;13.610;2023-06-04T00:36:57;6.28;;;3.70;;
80322;SDS011;69636;52.372;13.610;2023-06-04T00:39:26;5.65;;;3.55;;
80322;SDS011;69636;52.372;13.610;2023-06-04T00:41:53;5.13;;;3.53;;
80322;SDS011;69636;52.372;13.610;2023-06-04T00:44:20;5.35;;;4.18;;
80322;SDS011;69636;52.372;13.610;2023-06-04T00:46:47;5.65;;;4.22;;
80322;SDS011;69636;52.372;13.610;2023-06-04T00:49:15;7.60;;;3.95;;
80322;SDS011;69636;52.372;13.610;2023-06-04T00:51:42;6.20;;;4.18;;
80322;SDS011;69636;52.372;13.610;2023-06-04T00:54:09;5.22;;;3.75;;
80322;SDS011;69636;52.372;13.610;2023-06-04T00:56:40;4.80;;;3.42;;
80322;SDS011;69636;52.372;13.610;2023-06-04T00:59:08;6.93;;;3.95;;
80322;SDS011;69636;52.372;13.610;2023-06-04T01:01:37;6.07;;;4.43;;
80322;SDS011;69636;52.372;13.610;2023-06-04T01:04:14;5.63;;;3.92;;
80322;SDS011;69636;52.372;13.610;2023-06-04T01:06:45;5.05;;;3.78;;
80322;SDS011;69636;52.372;13.610;2023-06-04T01:09:16;6.47;;;3.60;;
80322;SDS011;69636;52.372;13.610;2023-06-04T01:11:46;6.32;;;3.83;;
80322;SDS011;69636;52.372;13.610;2023-06-04T01:14:13;6.35;;;4.13;;
80322;SDS011;69636;52.372;13.610;2023-06-04T01:16:42;4.72;;;3.83;;
80322;SDS011;69636;52.372;13.610;2023-06-04T01:19:19;7.55;;;4.30;;
80322;SDS011;69636;52.372;13.610;2023-06-04T01:21:58;5.35;;;3.65;;
80322;SDS011;69636;52.372;13.610;2023-06-04T01:24:31;5.78;;;4.18;;
80322;SDS011;69636;52.372;13.610;2023-06-04T01:27:04;6.25;;;4.05;;
80322;SDS011;69636;52.372;13.610;2023-06-04T01:29:32;7.35;;;4.40;;
80322;SDS011;69636;52.372;13.610;2023-06-04T01:32:00;6.20;;;4.22;;
80322;SDS011;69636;52.372;13.610;2023-06-04T01:34:28;6.72;;;4.07;;
80322;SDS011;69636;52.372;13.610;2023-06-04T01:36:55;7.32;;;4.40;;
80322;SDS011;69636;52.372;13.610;2023-06-04T01:39:22;6.80;;;4.10;;
80322;SDS011;69636;52.372;13.610;2023-06-04T01:41:49;6.97;;;5.63;;
80322;SDS011;69636;52.372;13.610;2023-06-04T01:44:18;5.25;;;3.97;;
80322;SDS011;69636;52.372;13.610;2023-06-04T01:46:45;5.88;;;4.13;;
80322;SDS011;69636;52.372;13.610;2023-06-04T01:49:13;5.43;;;3.60;;
80322;SDS011;69636;52.372;13.610;2023-06-04T01:51:40;5.20;;;4.07;;
80322;SDS011;69636;52.372;13.610;2023-06-04T01:54:07;4.93;;;3.95;;
80322;SDS011;69636;52.372;13.610;2023-06-04T01:56:35;6.13;;;3.75;;
80322;SDS011;69636;52.372;13.610;2023-06-04T01:59:02;6.43;;;5.65;;
80322;SDS011;69636;52.372;13.610;2023-06-04T02:01:30;8.00;;;3.75;;
80322;SDS011;69636;52.372;13.610;2023-06-04T02:03:58;5.75;;;3.75;;
80322;SDS011;69636;52.372;13.610;2023-06-04T02:06:25;6.05;;;3.95;;
80322;SDS011;69636;52.372;13.610;2023-06-04T02:08:53;5.53;;;3.35;;
80322;SDS011;69636;52.372;13.610;2023-06-04T02:11:20;8.20;;;4.03;;
80322;SDS011;69636;52.372;13.610;2023-06-04T02:13:47;5.68;;;3.67;;
80322;SDS011;69636;52.372;13.610;2023-06-04T02:16:14;5.38;;;3.35;;
80322;SDS011;69636;52.372;13.610;2023-06-04T02:18:43;6.30;;;3.13;;
80322;SDS011;69636;52.372;13.610;2023-06-04T02:21:10;5.28;;;3.50;;
80322;SDS011;69636;52.372;13.610;2023-06-04T02:23:37;6.80;;;5.90;;
80322;SDS011;69636;52.372;13.610;2023-06-04T02:26:05;6.63;;;4.10;;
80322;SDS011;69636;52.372;13.610;2023-06-04T02:28:32;5.57;;;3.55;;
80322;SDS011;69636;52.372;13.610;2023-06-04T02:31:00;7.70;;;5.47;;
80322;SDS011;69636;52.372;13.610;2023-06-04T02:33:27;6.53;;;3.83;;
80322;SDS011;69636;52.372;13.610;2023-06-04T02:35:56;4.90;;;3.38;;
80322;SDS011;69636;52.372;13.610;2023-06-04T02:38:23;5.47;;;4.28;;
80322;SDS011;69636;52.372;13.610;2023-06-04T02:40:50;7.00;;;4.75;;
80322;SDS011;69636;52.372;13.610;2023-06-04T02:43:17;5.88;;;3.85;;
80322;SDS011;69636;52.372;13.610;2023-06-04T02:45:45;5.75;;;3.78;;
80322;SDS011;69636;52.372;13.610;2023-06-04T02:48:12;6.07;;;4.05;;
80322;SDS011;69636;52.372;13.610;2023-06-04T02:50:39;5.28;;;3.72;;
80322;SDS011;69636;52.372;13.610;2023-06-04T02:53:08;4.32;;;2.83;;
80322;SDS011;69636;52.372;13.610;2023-06-04T02:55:35;5.95;;;4.28;;
80322;SDS011;69636;52.372;13.610;2023-06-04T02:58:03;5.28;;;3.45;;
80322;SDS011;69636;52.372;13.610;2023-06-04T03:00:30;5.35;;;3.20;;
80322;SDS011;69636;52.372;13.610;2023-06-04T03:02:57;5.03;;;3.55;;
80322;SDS011;69636;52.372;13.610;2023-06-04T03:05:25;5.68;;;3.65;;
80322;SDS011;69636;52.372;13.610;2023-06-04T03:07:52;5.35;;;3.42;;
80322;SDS011;69636;52.372;13.610;2023-06-04T03:10:21;5.25;;;3.35;;
80322;SDS011;69636;52.372;13.610;2023-06-04T03:12:48;5.45;;;3.70;;
80322;SDS011;69636;52.372;13.610;2023-06-04T03:15:15;5.05;;;3.28;;
80322;SDS011;69636;52.372;13.610;2023-06-04T03:17:43;4.97;;;2.90;;
80322;SDS011;69636;52.372;13.610;2023-06-04T03:20:10;4.72;;;3.78;;
80322;SDS011;69636;52.372;13.610;2023-06-04T03:22:37;5.00;;;3.42;;
80322;SDS011;69636;52.372;13.610;2023-06-04T03:25:05;5.70;;;4.25;;
80322;SDS011;69636;52.372;13.610;2023-06-04T03:27:34;4.88;;;3.70;;
80322;SDS011;69636;52.372;13.610;2023-06-04T03:30:02;6.03;;;5.13;;
80322;SDS011;69636;52.372;13.610;2023-06-04T03:34:57;6.28;;;3.92;;
80322;SDS011;69636;52.372;13.610;2023-06-04T03:37:24;4.88;;;3.22;;
80322;SDS011;69636;52.372;13.610;2023-06-04T03:39:52;3.78;;;3.08;;
80322;SDS011;69636;52.372;13.610;2023-06-04T03:42:19;4.82;;;3.03;;
80322;SDS011;69636;52.372;13.610;2023-06-04T03:44:48;4.85;;;3.47;;
80322;SDS011;69636;52.372;13.610;2023-06-04T03:47:15;6.05;;;4.78;;
80322;SDS011;69636;52.372;13.610;2023-06-04T03:49:42;4.68;;;3.00;;
80322;SDS011;69636;52.372;13.610;2023-06-04T03:52:09;4.70;;;3.05;;
80322;SDS011;69636;52.372;13.610;2023-06-04T03:54:37;4.88;;;3.67;;
80322;SDS011;69636;52.372;13.610;2023-06-04T03:57:04;5.57;;;3.38;;
80322;SDS011;69636;52.372;13.610;2023-06-04T03:59:31;4.63;;;3.15;;
80322;SDS011;69636;52.372;13.610;2023-06-04T04:02:00;4.95;;;3.15;;
80322;SDS011;69636;52.372;13.610;2023-06-04T04:04:27;3.92;;;3.22;;
80322;SDS011;69636;52.372;13.610;2023-06-04T04:06:55;6.32;;;3.40;;
80322;SDS011;69636;52.372;13.610;2023-06-04T04:09:22;4.93;;;2.90;;
80322;SDS011;69636;52.372;13.610;2023-06-04T04:11:49;5.45;;;2.92;;
80322;SDS011;69636;52.372;13.610;2023-06-04T04:14:17;5.20;;;3.08;;
80322;SDS011;69636;52.372;13.610;2023-06-04T04:16:44;4.82;;;2.90;;
80322;SDS011;69636;52.372;13.610;2023-06-04T04:19:13;5.05;;;3.38;;
80322;SDS011;69636;52.372;13.610;2023-06-04T04:21:40;5.35;;;2.97;;
80322;SDS011;69636;52.372;13.610;2023-06-04T04:24:07;4.07;;;2.53;;
80322;SDS011;69636;52.372;13.610;2023-06-04T04:26:35;4.25;;;3.25;;
80322;SDS011;69636;52.372;13.610;2023-06-04T04:29:02;4.13;;;2.88;;
80322;SDS011;69636;52.372;13.610;2023-06-04T04:31:29;4.78;;;4.35;;
80322;SDS011;69636;52.372;13.610;2023-06-04T04:33:57;7.03;;;3.63;;
80322;SDS011;69636;52.372;13.610;2023-06-04T04:36:26;4.45;;;3.63;;
80322;SDS011;69636;52.372;13.610;2023-06-04T04:38:53;4.00;;;2.38;;
80322;SDS011;69636;52.372;13.610;2023-06-04T04:41:20;4.85;;;2.75;;
80322;SDS011;69636;52.372;13.610;2023-06-04T04:43:48;4.43;;;2.67;;
80322;SDS011;69636;52.372;13.610;2023-06-04T04:46:15;5.13;;;2.78;;
80322;SDS011;69636;52.372;13.610;2023-06-04T04:48:43;4.20;;;2.95;;
80322;SDS011;69636;52.372;13.610;2023-06-04T04:51:10;5.47;;;2.67;;
80322;SDS011;69636;52.372;13.610;2023-06-04T04:53:39;4.70;;;2.90;;
80322;SDS011;69636;52.372;13.610;2023-06-04T04:56:06;3.95;;;2.55;;
80322;SDS011;69636;52.372;13.610;2023-06-04T04:58:34;4.70;;;2.70;;
80322;SDS011;69636;52.372;13.610;2023-06-04T05:01:01;7.05;;;3.63;;
80322;SDS011;69636;52.372;13.610;2023-06-04T05:03:28;4.85;;;2.50;;
80322;SDS011;69636;52.372;13.610;2023-06-04T05:05:56;4.85;;;2.78;;
80322;SDS011;69636;52.372;13.610;2023-06-04T05:08:23;4.18;;;2.35;;
80322;SDS011;69636;52.372;13.610;2023-06-04T05:10:52;5.70;;;2.30;;
80322;SDS011;69636;52.372;13.610;2023-06-04T05:13:19;4.53;;;2.40;;
80322;SDS011;69636;52.372;13.610;2023-06-04T05:15:46;3.47;;;2.10;;
80322;SDS011;69636;52.372;13.610;2023-06-04T05:18:14;3.97;;;2.17;;
80322;SDS011;69636;52.372;13.610;2023-06-04T05:20:41;3.92;;;1.73;;
80322;SDS011;69636;52.372;13.610;2023-06-04T05:23:08;3.55;;;1.70;;
80322;SDS011;69636;52.372;13.610;2023-06-04T05:25:36;4.63;;;1.52;;
80322;SDS011;69636;52.372;13.610;2023-06-04T05:28:04;3.67;;;2.63;;
80322;SDS011;69636;52.372;13.610;2023-06-04T05:30:32;4.47;;;1.70;;
80322;SDS011;69636;52.372;13.610;2023-06-04T05:32:59;3.50;;;1.83;;
80322;SDS011;69636;52.372;13.610;2023-06-04T05:35:26;3.85;;;1.45;;
80322;SDS011;69636;52.372;13.610;2023-06-04T05:37:54;2.65;;;1.35;;
80322;SDS011;69636;52.372;13.610;2023-06-04T05:40:21;3.25;;;1.38;;
80322;SDS011;69636;52.372;13.610;2023-06-04T05:42:48;4.95;;;1.80;;
80322;SDS011;69636;52.372;13.610;2023-06-04T05:45:17;3.03;;;1.63;;
80322;SDS011;69636;52.372;13.610;2023-06-04T05:47:44;4.45;;;1.77;;
80322;SDS011;69636;52.372;13.610;2023-06-04T05:50:12;3.63;;;1.25;;
80322;SDS011;69636;52.372;13.610;2023-06-04T05:52:39;3.42;;;2.88;;
80322;SDS011;69636;52.372;13.610;2023-06-04T05:55:07;3.85;;;1.48;;
80322;SDS011;69636;52.372;13.610;2023-06-04T05:57:35;3.58;;;1.23;;
80322;SDS011;69636;52.372;13.610;2023-06-04T06:00:02;2.60;;;1.20;;
80322;SDS011;69636;52.372;13.610;2023-06-04T06:02:31;2.35;;;1.10;;
80322;SDS011;69636;52.372;13.610;2023-06-04T06:04:59;4.22;;;1.65;;
80322;SDS011;69636;52.372;13.610;2023-06-04T06:07:26;2.72;;;1.25;;
80322;SDS011;69636;52.372;13.610;2023-06-04T06:09:53;3.20;;;1.52;;
80322;SDS011;69636;52.372;13.610;2023-06-04T06:12:21;3.00;;;1.25;;
80322;SDS011;69636;52.372;13.610;2023-06-04T06:14:48;3.47;;;1.60;;
80322;SDS011;69636;52.372;13.610;2023-06-04T06:17:15;7.72;;;1.52;;
80322;SDS011;69636;52.372;13.610;2023-06-04T06:19:44;3.40;;;1.50;;
80322;SDS011;69636;52.372;13.610;2023-06-04T06:22:11;3.60;;;1.40;;
80322;SDS011;69636;52.372;13.610;2023-06-04T06:24:39;3.55;;;1.52;;
80322;SDS011;69636;52.372;13.610;2023-06-04T06:27:06;2.47;;;0.95;;
80322;SDS011;69636;52.372;13.610;2023-06-04T06:29:34;3.67;;;1.17;;
80322;SDS011;69636;52.372;13.610;2023-06-04T06:32:01;2.90;;;1.60;;
80322;SDS011;69636;52.372;13.610;2023-06-04T06:34:28;3.75;;;1.10;;
80322;SDS011;69636;52.372;13.610;2023-06-04T06:36:57;2.50;;;0.90;;
80322;SDS011;69636;52.372;13.610;2023-06-04T06:39:24;3.05;;;1.20;;
80322;SDS011;69636;52.372;13.610;2023-06-04T06:41:52;2.45;;;0.80;;
80322;SDS011;69636;52.372;13.610;2023-06-04T06:44:19;2.70;;;0.80;;
80322;SDS011;69636;52.372;13.610;2023-06-04T06:46:46;2.55;;;0.80;;
80322;SDS011;69636;52.372;13.610;2023-06-04T06:49:14;2.88;;;1.23;;
80322;SDS011;69636;52.372;13.610;2023-06-04T06:51:41;2.63;;;1.00;;
80322;SDS011;69636;52.372;13.610;2023-06-04T06:54:09;3.53;;;1.00;;
80322;SDS011;69636;52.372;13.610;2023-06-04T06:56:37;2.90;;;0.82;;
80322;SDS011;69636;52.372;13.610;2023-06-04T06:59:04;2.65;;;0.90;;
80322;SDS011;69636;52.372;13.610;2023-06-04T07:01:31;3.60;;;0.88;;
80322;SDS011;69636;52.372;13.610;2023-06-04T07:03:59;2.78;;;0.73;;
80322;SDS011;69636;52.372;13.610;2023-06-04T07:06:26;3.15;;;0.70;;
80322;SDS011;69636;52.372;13.610;2023-06-04T07:08:53;2.72;;;0.60;;
80322;SDS011;69636;52.372;13.610;2023-06-04T07:11:22;3.42;;;0.73;;
80322;SDS011;69636;52.372;13.610;2023-06-04T07:13:50;2.17;;;0.77;;
80322;SDS011;69636;52.372;13.610;2023-06-04T07:16:17;2.33;;;0.90;;
80322;SDS011;69636;52.372;13.610;2023-06-04T07:18:47;3.00;;;0.70;;
80322;SDS011;69636;52.372;13.610;2023-06-04T07:21:14;3.95;;;1.13;;
80322;SDS011;69636;52.372;13.610;2023-06-04T07:23:42;2.40;;;0.90;;
80322;SDS011;69636;52.372;13.610;2023-06-04T07:26:09;2.75;;;1.08;;
80322;SDS011;69636;52.372;13.610;2023-06-04T07:28:38;2.95;;;1.38;;
80322;SDS011;69636;52.372;13.610;2023-06-04T07:31:05;3.17;;;1.10;;
80322;SDS011;69636;52.372;13.610;2023-06-04T07:36:00;2.72;;;0.80;;
80322;SDS011;69636;52.372;13.610;2023-06-04T07:38:27;5.43;;;1.00;;
80322;SDS011;69636;52.372;13.610;2023-06-04T07:40:55;2.25;;;0.68;;
80322;SDS011;69636;52.372;13.610;2023-06-04T07:43:22;4.07;;;0.60;;
80322;SDS011;69636;52.372;13.610;2023-06-04T07:45:50;3.92;;;0.82;;
80322;SDS011;69636;52.372;13.610;2023-06-04T07:48:18;6.63;;;2.00;;
80322;SDS011;69636;52.372;13.610;2023-06-04T07:50:45;4.47;;;1.98;;
80322;SDS011;69636;52.372;13.610;2023-06-04T07:53:12;3.90;;;0.50;;
80322;SDS011;69636;52.372;13.610;2023-06-04T07:55:40;1.85;;;0.50;;
80322;SDS011;69636;52.372;13.610;2023-06-04T07:58:07;1.70;;;0.65;;
80322;SDS011;69636;52.372;13.610;2023-06-04T08:00:34;3.05;;;0.68;;
80322;SDS011;69636;52.372;13.610;2023-06-04T08:03:03;2.00;;;0.70;;
80322;SDS011;69636;52.372;13.610;2023-06-04T08:05:31;2.95;;;1.58;;
80322;SDS011;69636;52.372;13.610;2023-06-04T08:07:58;4.57;;;1.00;;
80322;SDS011;69636;52.372;13.610;2023-06-04T08:10:25;2.25;;;0.68;;
80322;SDS011;69636;52.372;13.610;2023-06-04T08:12:53;3.25;;;0.80;;
80322;SDS011;69636;52.372;13.610;2023-06-04T08:15:20;3.30;;;1.60;;
80322;SDS011;69636;52.372;13.610;2023-06-04T08:17:47;4.60;;;1.10;;
80322;SDS011;69636;52.372;13.610;2023-06-04T08:20:16;1.88;;;0.80;;
80322;SDS011;69636;52.372;13.610;2023-06-04T08:22:43;1.73;;;0.63;;
80322;SDS011;69636;52.372;13.610;2023-06-04T08:25:11;2.80;;;1.00;;
80322;SDS011;69636;52.372;13.610;2023-06-04T08:27:38;2.72;;;0.70;;
80322;SDS011;69636;52.372;13.610;2023-06-04T08:30:06;1.42;;;0.43;;
80322;SDS011;69636;52.372;13.610;2023-06-04T08:32:34;1.33;;;0.45;;
80322;SDS011;69636;52.372;13.610;2023-06-04T08:35:02;2.17;;;0.70;;
80322;SDS011;69636;52.372;13.610;2023-06-04T08:37:31;0.82;;;0.25;;
80322;SDS011;69636;52.372;13.610;2023-06-04T08:39:58;3.97;;;0.90;;
80322;SDS011;69636;52.372;13.610;2023-06-04T08:42:27;2.22;;;0.80;;
80322;SDS011;69636;52.372;13.610;2023-06-04T08:44:57;2.53;;;1.15;;
80322;SDS011;69636;52.372;13.610;2023-06-04T08:47:25;1.90;;;0.57;;
80322;SDS011;69636;52.372;13.610;2023-06-04T08:49:52;1.83;;;0.47;;
80322;SDS011;69636;52.372;13.610;2023-06-04T08:52:25;1.67;;;0.70;;
80322;SDS011;69636;52.372;13.610;2023-06-04T08:54:55;2.67;;;0.75;;
80322;SDS011;69636;52.372;13.610;2023-06-04T08:57:22;1.90;;;0.50;;
80322;SDS011;69636;52.372;13.610;2023-06-04T09:02:17;1.48;;;0.40;;
80322;SDS011;69636;52.372;13.610;2023-06-04T09:04:45;1.65;;;0.60;;
80322;SDS011;69636;52.372;13.610;2023-06-04T09:07:13;2.47;;;0.70;;
80322;SDS011;69636;52.372;13.610;2023-06-04T09:09:44;3.63;;;0.60;;
80322;SDS011;69636;52.372;13.610;2023-06-04T09:12:23;4.78;;;0.80;;
80322;SDS011;69636;52.372;13.610;2023-06-04T09:14:51;1.98;;;0.70;;
80322;SDS011;69636;52.372;13.610;2023-06-04T09:19:48;3.47;;;0.70;;
80322;SDS011;69636;52.372;13.610;2023-06-04T09:22:15;1.75;;;0.60;;
80322;SDS011;69636;52.372;13.610;2023-06-04T09:24:43;2.03;;;0.80;;
80322;SDS011;69636;52.372;13.610;2023-06-04T09:27:11;1.80;;;0.52;;
80322;SDS011;69636;52.372;13.610;2023-06-04T09:29:48;1.92;;;0.60;;
80322;SDS011;69636;52.372;13.610;2023-06-04T09:32:20;2.30;;;0.70;;
80322;SDS011;69636;52.372;13.610;2023-06-04T09:34:48;1.75;;;0.65;;
80322;SDS011;69636;52.372;13.610;2023-06-04T09:39:42;2.05;;;0.90;;
80322;SDS011;69636;52.372;13.610;2023-06-04T09:42:10;2.72;;;0.70;;
80322;SDS011;69636;52.372;13.610;2023-06-04T09:47:11;3.63;;;0.60;;
80322;SDS011;69636;52.372;13.610;2023-06-04T09:49:41;1.38;;;0.40;;
80322;SDS011;69636;52.372;13.610;2023-06-04T09:52:09;1.75;;;0.60;;
80322;SDS011;69636;52.372;13.610;2023-06-04T09:54:37;2.75;;;0.70;;
80322;SDS011;69636;52.372;13.610;2023-06-04T09:57:05;3.20;;;0.60;;
80322;SDS011;69636;52.372;13.610;2023-06-04T09:59:40;3.33;;;0.63;;
80322;SDS011;69636;52.372;13.610;2023-06-04T10:02:11;1.70;;;0.50;;
80322;SDS011;69636;52.372;13.610;2023-06-04T10:04:40;2.10;;;0.70;;
80322;SDS011;69636;52.372;13.610;2023-06-04T10:07:08;1.70;;;0.60;;
80322;SDS011;69636;52.372;13.610;2023-06-04T10:09:36;2.55;;;0.70;;
80322;SDS011;69636;52.372;13.610;2023-06-04T10:12:05;1.73;;;0.60;;
80322;SDS011;69636;52.372;13.610;2023-06-04T10:14:35;2.78;;;0.60;;
80322;SDS011;69636;52.372;13.610;2023-06-04T10:17:08;2.25;;;0.80;;
80322;SDS011;69636;52.372;13.610;2023-06-04T10:19:37;1.88;;;0.60;;
80322;SDS011;69636;52.372;13.610;2023-06-04T10:22:06;2.17;;;0.45;;
80322;SDS011;69636;52.372;13.610;2023-06-04T10:24:33;2.67;;;0.73;;
80322;SDS011;69636;52.372;13.610;2023-06-04T10:27:01;3.03;;;0.70;;
80322;SDS011;69636;52.372;13.610;2023-06-04T10:29:29;2.63;;;0.70;;
80322;SDS011;69636;52.372;13.610;2023-06-04T10:31:57;3.13;;;0.63;;
80322;SDS011;69636;52.372;13.610;2023-06-04T10:34:27;2.80;;;0.60;;
80322;SDS011;69636;52.372;13.610;2023-06-04T10:36:54;2.22;;;0.70;;
80322;SDS011;69636;52.372;13.610;2023-06-04T10:39:25;2.22;;;0.60;;
80322;SDS011;69636;52.372;13.610;2023-06-04T10:41:59;2.47;;;0.63;;
80322;SDS011;69636;52.372;13.610;2023-06-04T10:44:27;2.25;;;0.75;;
80322;SDS011;69636;52.372;13.610;2023-06-04T10:49:25;1.38;;;0.50;;
80322;SDS011;69636;52.372;13.610;2023-06-04T10:51:55;2.10;;;0.55;;
80322;SDS011;69636;52.372;13.610;2023-06-04T10:54:22;1.73;;;0.60;;
80322;SDS011;69636;52.372;13.610;2023-06-04T10:56:51;2.97;;;0.73;;
80322;SDS011;69636;52.372;13.610;2023-06-04T10:59:19;2.00;;;0.65;;
80322;SDS011;69636;52.372;13.610;2023-06-04T11:04:20;2.35;;;0.63;;
80322;SDS011;69636;52.372;13.610;2023-06-04T11:06:55;2.13;;;0.70;;
80322;SDS011;69636;52.372;13.610;2023-06-04T11:09:27;2.20;;;0.82;;
80322;SDS011;69636;52.372;13.610;2023-06-04T11:11:57;3.35;;;0.70;;
80322;SDS011;69636;52.372;13.610;2023-06-04T11:14:25;6.63;;;0.68;;
80322;SDS011;69636;52.372;13.610;2023-06-04T11:16:52;2.40;;;0.70;;
80322;SDS011;69636;52.372;13.610;2023-06-04T11:19:20;1.80;;;0.60;;
80322;SDS011;69636;52.372;13.610;2023-06-04T11:21:47;3.85;;;1.00;;
80322;SDS011;69636;52.372;13.610;2023-06-04T11:24:16;3.03;;;0.77;;
80322;SDS011;69636;52.372;13.610;2023-06-04T11:26:44;2.70;;;0.80;;
80322;SDS011;69636;52.372;13.610;2023-06-04T11:29:27;1.13;;;0.45;;
80322;SDS011;69636;52.372;13.610;2023-06-04T11:31:55;2.70;;;0.60;;
80322;SDS011;69636;52.372;13.610;2023-06-04T11:34:22;1.83;;;0.55;;
80322;SDS011;69636;52.372;13.610;2023-06-04T11:36:51;2.45;;;0.60;;
80322;SDS011;69636;52.372;13.610;2023-06-04T11:39:19;1.98;;;0.80;;
80322;SDS011;69636;52.372;13.610;2023-06-04T11:41:47;1.67;;;0.45;;
80322;SDS011;69636;52.372;13.610;2023-06-04T11:44:18;2.65;;;0.80;;
80322;SDS011;69636;52.372;13.610;2023-06-04T11:46:46;2.00;;;0.68;;
80322;SDS011;69636;52.372;13.610;2023-06-04T11:49:15;2.83;;;0.73;;
80322;SDS011;69636;52.372;13.610;2023-06-04T11:51:45;2.50;;;0.98;;
80322;SDS011;69636;52.372;13.610;2023-06-04T11:54:15;2.83;;;0.90;;
80322;SDS011;69636;52.372;13.610;2023-06-04T11:56:44;3.30;;;1.63;;
80322;SDS011;69636;52.372;13.610;2023-06-04T11:59:12;2.63;;;0.77;;
80322;SDS011;69636;52.372;13.610;2023-06-04T12:01:41;2.35;;;0.68;;
80322;SDS011;69636;52.372;13.610;2023-06-04T12:04:12;2.08;;;0.82;;
80322;SDS011;69636;52.372;13.610;2023-06-04T12:06:50;1.42;;;0.52;;
80322;SDS011;69636;52.372;13.610;2023-06-04T12:09:22;3.13;;;0.70;;
80322;SDS011;69636;52.372;13.610;2023-06-04T12:11:57;1.92;;;0.68;;
80322;SDS011;69636;52.372;13.610;2023-06-04T12:14:25;1.67;;;0.50;;
80322;SDS011;69636;52.372;13.610;2023-06-04T12:16:55;2.30;;;0.65;;
80322;SDS011;69636;52.372;13.610;2023-06-04T12:19:23;2.90;;;0.70;;
80322;SDS011;69636;52.372;13.610;2023-06-04T12:21:58;2.65;;;0.70;;
80322;SDS011;69636;52.372;13.610;2023-06-04T12:24:29;3.17;;;0.80;;
80322;SDS011;69636;52.372;13.610;2023-06-04T12:27:03;2.17;;;0.63;;
80322;SDS011;69636;52.372;13.610;2023-06-04T12:29:32;3.13;;;0.70;;
80322;SDS011;69636;52.372;13.610;2023-06-04T12:32:03;2.42;;;0.50;;
80322;SDS011;69636;52.372;13.610;2023-06-04T12:34:32;2.42;;;0.70;;
80322;SDS011;69636;52.372;13.610;2023-06-04T12:36:59;1.80;;;0.50;;
80322;SDS011;69636;52.372;13.610;2023-06-04T12:39:28;2.20;;;0.75;;
80322;SDS011;69636;52.372;13.610;2023-06-04T12:41:58;2.13;;;0.60;;
80322;SDS011;69636;52.372;13.610;2023-06-04T12:44:26;2.53;;;0.55;;
80322;SDS011;69636;52.372;13.610;2023-06-04T12:46:53;2.83;;;0.80;;
80322;SDS011;69636;52.372;13.610;2023-06-04T12:49:23;2.72;;;0.77;;
80322;SDS011;69636;52.372;13.610;2023-06-04T12:51:50;2.20;;;0.77;;
80322;SDS011;69636;52.372;13.610;2023-06-04T12:56:46;2.50;;;0.55;;
80322;SDS011;69636;52.372;13.610;2023-06-04T12:59:13;2.42;;;0.70;;
80322;SDS011;69636;52.372;13.610;2023-06-04T13:01:43;1.75;;;0.68;;
80322;SDS011;69636;52.372;13.610;2023-06-04T13:04:10;2.47;;;0.60;;
80322;SDS011;69636;52.372;13.610;2023-06-04T13:06:38;2.00;;;0.80;;
80322;SDS011;69636;52.372;13.610;2023-06-04T13:09:06;3.42;;;0.93;;
80322;SDS011;69636;52.372;13.610;2023-06-04T13:11:34;3.45;;;0.75;;
80322;SDS011;69636;52.372;13.610;2023-06-04T13:14:13;2.58;;;0.70;;
80322;SDS011;69636;52.372;13.610;2023-06-04T13:16:40;1.95;;;0.70;;
80322;SDS011;69636;52.372;13.610;2023-06-04T13:19:08;2.63;;;0.75;;
80322;SDS011;69636;52.372;13.610;2023-06-04T13:21:36;2.38;;;0.88;;
80322;SDS011;69636;52.372;13.610;2023-06-04T13:24:03;3.35;;;0.68;;
80322;SDS011;69636;52.372;13.610;2023-06-04T13:26:31;2.83;;;0.75;;
80322;SDS011;69636;52.372;13.610;2023-06-04T13:31:27;3.13;;;0.82;;
80322;SDS011;69636;52.372;13.610;2023-06-04T13:33:54;3.65;;;0.80;;
80322;SDS011;69636;52.372;13.610;2023-06-04T13:38:49;2.60;;;0.70;;
80322;SDS011;69636;52.372;13.610;2023-06-04T13:41:16;2.80;;;0.80;;
80322;SDS011;69636;52.372;13.610;2023-06-04T13:46:11;3.10;;;0.90;;
80322;SDS011;69636;52.372;13.610;2023-06-04T13:51:07;1.42;;;0.63;;
80322;SDS011;69636;52.372;13.610;2023-06-04T13:53:35;2.63;;;0.98;;
80322;SDS011;69636;52.372;13.610;2023-06-04T13:56:02;2.28;;;0.80;;
80322;SDS011;69636;52.372;13.610;2023-06-04T14:00:56;3.03;;;0.80;;
80322;SDS011;69636;52.372;13.610;2023-06-04T14:05:52;2.45;;;0.82;;
80322;SDS011;69636;52.372;13.610;2023-06-04T14:08:19;2.70;;;0.65;;
80322;SDS011;69636;52.372;13.610;2023-06-04T14:13:14;3.75;;;0.80;;
80322;SDS011;69636;52.372;13.610;2023-06-04T14:15:41;5.53;;;0.88;;
80322;SDS011;69636;52.372;13.610;2023-06-04T14:18:09;1.92;;;0.50;;
80322;SDS011;69636;52.372;13.610;2023-06-04T14:23:05;3.05;;;0.82;;
80322;SDS011;69636;52.372;13.610;2023-06-04T14:25:32;2.58;;;1.00;;
80322;SDS011;69636;52.372;13.610;2023-06-04T14:27:59;2.72;;;0.85;;
80322;SDS011;69636;52.372;13.610;2023-06-04T14:30:26;2.28;;;0.80;;
80322;SDS011;69636;52.372;13.610;2023-06-04T14:32:54;2.40;;;0.82;;
80322;SDS011;69636;52.372;13.610;2023-06-04T14:35:21;3.53;;;0.90;;
80322;SDS011;69636;52.372;13.610;2023-06-04T14:40:17;2.50;;;0.80;;
80322;SDS011;69636;52.372;13.610;2023-06-04T14:42:44;3.70;;;0.82;;
80322;SDS011;69636;52.372;13.610;2023-06-04T14:45:11;2.33;;;0.98;;
80322;SDS011;69636;52.372;13.610;2023-06-04T14:50:06;2.08;;;0.70;;
80322;SDS011;69636;52.372;13.610;2023-06-04T14:52:33;2.78;;;1.02;;
80322;SDS011;69636;52.372;13.610;2023-06-04T14:57:29;2.67;;;0.82;;
80322;SDS011;69636;52.372;13.610;2023-06-04T14:59:56;1.85;;;0.82;;
80322;SDS011;69636;52.372;13.610;2023-06-04T15:04:51;2.90;;;0.73;;
80322;SDS011;69636;52.372;13.610;2023-06-04T15:07:18;3.30;;;1.30;;
80322;SDS011;69636;52.372;13.610;2023-06-04T15:09:45;2.78;;;0.90;;
80322;SDS011;69636;52.372;13.610;2023-06-04T15:12:13;3.08;;;0.70;;
80322;SDS011;69636;52.372;13.610;2023-06-04T15:14:41;1.83;;;0.93;;
80322;SDS011;69636;52.372;13.610;2023-06-04T15:17:09;5.28;;;3.65;;
80322;SDS011;69636;52.372;13.610;2023-06-04T15:22:03;3.88;;;1.95;;
80322;SDS011;69636;52.372;13.610;2023-06-04T15:24:31;7.22;;;4.47;;
80322;SDS011;69636;52.372;13.610;2023-06-04T15:29:25;2.92;;;0.85;;
80322;SDS011;69636;52.372;13.610;2023-06-04T15:31:54;1.90;;;0.73;;
80322;SDS011;69636;52.372;13.610;2023-06-04T15:34:21;3.65;;;0.95;;